createdAt,value
2023-02-22T00:01:51.772Z,13.60
2023-02-22T00:04:45.657Z,14.60
2023-02-22T00:07:39.576Z,14.00
2023-02-22T00:10:33.794Z,14.00
2023-02-22T00:13:29.238Z,13.90
2023-02-22T00:16:25.648Z,14.60
2023-02-22T00:19:19.769Z,14.40
2023-02-22T00:22:13.533Z,15.70
2023-02-22T00:25:08.431Z,15.00
2023-02-22T00:28:05.636Z,16.10
2023-02-22T00:31:00.340Z,16.20
2023-02-22T00:33:54.135Z,14.60
2023-02-22T00:36:51.645Z,15.40
2023-02-22T00:42:38.180Z,15.00
2023-02-22T00:45:34.472Z,14.80
2023-02-22T00:48:28.328Z,16.10
2023-02-22T00:51:22.308Z,15.00
2023-02-22T00:54:18.506Z,15.50
2023-02-22T00:57:13.465Z,15.10
2023-02-22T01:00:12.886Z,15.20
2023-02-22T01:03:07.511Z,16.00
2023-02-22T01:06:03.902Z,15.30
2023-02-22T01:08:57.784Z,15.00
2023-02-22T01:11:55.205Z,14.70
2023-02-22T01:14:49.255Z,15.00
2023-02-22T01:17:44.076Z,13.90
2023-02-22T01:20:38.198Z,15.10
2023-02-22T01:23:31.967Z,13.50
2023-02-22T01:26:26.198Z,15.40
2023-02-22T01:29:22.303Z,15.20
2023-02-22T01:32:16.125Z,15.20
2023-02-22T01:35:14.455Z,15.10
2023-02-22T01:38:08.495Z,15.20
2023-02-22T01:41:02.726Z,14.90
2023-02-22T01:43:56.700Z,13.70
2023-02-22T01:46:50.633Z,15.30
2023-02-22T01:49:49.199Z,14.80
2023-02-22T01:52:42.895Z,14.50
2023-02-22T01:55:37.456Z,14.20
2023-02-22T01:58:34.764Z,13.70
2023-02-22T02:01:31.304Z,14.80
2023-02-22T02:04:26.899Z,13.80
2023-02-22T02:07:23.858Z,14.30
2023-02-22T02:10:18.525Z,14.80
2023-02-22T02:13:10.274Z,14.00
2023-02-22T02:16:04.690Z,14.10
2023-02-22T02:18:58.441Z,14.40
2023-02-22T02:22:39.034Z,14.00
2023-02-22T02:26:34.013Z,13.30
2023-02-22T02:30:00.556Z,14.00
2023-02-22T02:33:13.287Z,14.20
2023-02-22T02:36:15.326Z,13.60
2023-02-22T02:39:28.431Z,14.00
2023-02-22T02:42:26.685Z,14.40
2023-02-22T02:45:30.351Z,13.50
2023-02-22T02:48:29.135Z,14.40
2023-02-22T02:51:25.705Z,13.50
2023-02-22T02:54:20.977Z,14.60
2023-02-22T02:57:15.022Z,14.00
2023-02-22T03:00:22.632Z,14.30
2023-02-22T03:03:53.660Z,14.30
2023-02-22T03:07:18.333Z,13.70
2023-02-22T03:10:30.472Z,14.20
2023-02-22T03:13:36.831Z,14.30
2023-02-22T03:16:43.582Z,14.00
2023-02-22T03:19:43.596Z,13.90
2023-02-22T03:22:44.382Z,12.90
2023-02-22T03:25:44.375Z,13.70
2023-02-22T03:28:41.138Z,13.40
2023-02-22T03:31:39.045Z,13.40
2023-02-22T03:34:32.778Z,13.30
2023-02-22T03:37:34.039Z,12.70
2023-02-22T03:40:36.414Z,12.80
2023-02-22T03:43:37.677Z,13.00
2023-02-22T03:46:33.843Z,14.20
2023-02-22T03:49:37.500Z,13.90
2023-02-22T03:52:31.382Z,13.40
2023-02-22T03:55:25.150Z,13.80
2023-02-22T03:58:19.923Z,12.80
2023-02-22T04:01:15.697Z,13.70
2023-02-22T04:04:10.712Z,13.10
2023-02-22T04:07:04.803Z,13.10
2023-02-22T04:09:58.611Z,12.90
2023-02-22T04:12:52.878Z,13.40
2023-02-22T04:15:46.715Z,11.80
2023-02-22T04:18:41.056Z,12.60
2023-02-22T04:21:35.457Z,13.10
2023-02-22T04:24:30.608Z,12.20
2023-02-22T04:27:27.866Z,11.70
2023-02-22T04:30:23.377Z,12.10
2023-02-22T04:33:17.512Z,11.90
2023-02-22T04:36:13.554Z,10.10
2023-02-22T04:39:07.516Z,11.80
2023-02-22T04:42:01.272Z,11.40
2023-02-22T04:44:55.279Z,11.50
2023-02-22T04:47:49.078Z,11.10
2023-02-22T04:50:42.950Z,10.80
2023-02-22T04:53:37.358Z,11.30
2023-02-22T04:56:31.189Z,11.30
2023-02-22T04:59:24.916Z,10.90
2023-02-22T05:02:18.885Z,10.90
2023-02-22T05:05:14.438Z,11.80
2023-02-22T05:08:08.404Z,11.40
2023-02-22T05:11:02.404Z,11.60
2023-02-22T05:13:56.182Z,11.10
2023-02-22T05:16:50.914Z,11.40
2023-02-22T05:19:44.932Z,11.20
2023-02-22T05:22:38.863Z,10.80
2023-02-22T05:25:33.226Z,11.20
2023-02-22T05:28:27.236Z,10.90
2023-02-22T05:31:20.990Z,10.60
2023-02-22T05:34:15.394Z,12.50
2023-02-22T05:36:52.719Z,12.00
2023-02-22T05:39:46.810Z,11.30
2023-02-22T05:42:40.540Z,11.40
2023-02-22T05:45:34.563Z,11.90
2023-02-22T05:48:28.368Z,12.10
2023-02-22T05:51:22.523Z,11.70
2023-02-22T05:54:16.349Z,11.20
2023-02-22T05:57:10.289Z,11.90
2023-02-22T06:00:05.210Z,11.90
2023-02-22T06:03:01.843Z,11.00
2023-02-22T06:05:41.617Z,10.40
2023-02-22T06:08:35.564Z,11.60
2023-02-22T06:11:29.580Z,10.90
2023-02-22T06:14:24.316Z,10.40
2023-02-22T06:17:20.594Z,10.90
2023-02-22T06:20:17.291Z,10.30
2023-02-22T06:23:11.425Z,10.50
2023-02-22T06:26:05.576Z,10.40
2023-02-22T06:28:59.257Z,10.20
2023-02-22T06:31:53.534Z,10.00
2023-02-22T06:34:48.546Z,10.90
2023-02-22T06:37:43.842Z,14.20
2023-02-22T06:40:37.979Z,11.10
2023-02-22T06:43:31.818Z,13.60
2023-02-22T06:46:25.582Z,12.60
2023-02-22T06:49:19.903Z,14.00
2023-02-22T06:52:13.902Z,18.40
2023-02-22T06:55:08.546Z,13.90
2023-02-22T06:58:03.930Z,13.10
2023-02-22T07:00:57.631Z,13.90
2023-02-22T07:03:52.985Z,12.20
2023-02-22T07:06:50.971Z,11.70
2023-02-22T07:09:46.731Z,11.70
2023-02-22T07:12:41.250Z,16.50
2023-02-22T07:15:36.534Z,15.10
2023-02-22T07:18:31.012Z,13.10
2023-02-22T07:21:25.081Z,15.00
2023-02-22T07:24:18.933Z,13.60
2023-02-22T07:27:12.717Z,13.30
2023-02-22T07:30:07.881Z,13.40
2023-02-22T07:33:04.098Z,13.80
2023-02-22T07:35:58.131Z,12.80
2023-02-22T07:38:52.315Z,12.60
2023-02-22T07:41:46.116Z,12.10
2023-02-22T07:44:39.861Z,13.60
2023-02-22T07:47:33.740Z,13.20
2023-02-22T07:50:30.443Z,12.10
2023-02-22T07:53:28.673Z,13.00
2023-02-22T07:56:22.600Z,12.40
2023-02-22T07:59:17.281Z,12.10
2023-02-22T08:02:18.352Z,13.20
2023-02-22T08:05:15.264Z,12.70
2023-02-22T08:08:09.826Z,13.10
2023-02-22T08:11:07.513Z,12.80
2023-02-22T08:14:01.234Z,13.70
2023-02-22T08:16:45.127Z,12.70
2023-02-22T08:19:24.408Z,12.80
2023-02-22T08:22:18.586Z,12.90
2023-02-22T08:25:15.567Z,12.00
2023-02-22T08:28:12.500Z,11.90
2023-02-22T08:31:07.792Z,12.90
2023-02-22T08:34:02.000Z,12.40
2023-02-22T08:36:47.209Z,12.50
2023-02-22T08:39:41.382Z,12.20
2023-02-22T08:42:35.363Z,11.90
2023-02-22T08:45:30.745Z,12.40
2023-02-22T08:48:24.808Z,12.70
2023-02-22T08:51:19.192Z,11.50
2023-02-22T08:54:14.707Z,12.40
2023-02-22T08:57:08.507Z,12.30
2023-02-22T09:00:02.756Z,12.10
2023-02-22T09:02:56.756Z,12.50
2023-02-22T09:05:51.130Z,12.30
2023-02-22T09:08:45.364Z,12.70
2023-02-22T09:11:39.039Z,12.30
2023-02-22T09:14:32.692Z,12.60
2023-02-22T09:17:26.523Z,12.60
2023-02-22T09:20:24.371Z,12.20
2023-02-22T09:23:19.321Z,12.40
2023-02-22T09:26:16.448Z,12.30
2023-02-22T09:29:00.772Z,11.60
2023-02-22T09:31:56.410Z,12.20
2023-02-22T09:34:52.177Z,12.20
2023-02-22T09:37:45.934Z,11.70
2023-02-22T09:40:45.853Z,11.50
2023-02-22T09:43:46.654Z,12.40
2023-02-22T09:46:46.727Z,12.20
2023-02-22T09:49:31.239Z,11.60
2023-02-22T09:52:51.074Z,11.50
2023-02-22T09:55:53.881Z,11.70
2023-02-22T09:58:52.205Z,10.90
2023-02-22T10:01:49.697Z,11.20
2023-02-22T10:04:42.574Z,11.60
2023-02-22T10:07:42.969Z,11.10
2023-02-22T10:10:46.053Z,10.70
2023-02-22T10:13:39.254Z,10.60
2023-02-22T10:16:42.682Z,11.10
2023-02-22T10:19:48.674Z,10.60
2023-02-22T10:22:57.763Z,10.90
2023-02-22T10:26:16.036Z,10.50
2023-02-22T10:29:22.163Z,10.60
2023-02-22T10:32:23.003Z,10.80
2023-02-22T10:35:25.666Z,10.60
2023-02-22T10:38:23.631Z,10.00
2023-02-22T10:41:28.851Z,10.00
2023-02-22T10:44:22.877Z,10.70
2023-02-22T10:47:21.841Z,10.20
2023-02-22T10:50:20.874Z,10.40
2023-02-22T10:53:16.415Z,10.30
2023-02-22T10:56:15.965Z,10.00
2023-02-22T10:59:10.388Z,10.00
2023-02-22T11:02:25.867Z,9.40
2023-02-22T11:05:36.208Z,9.50
2023-02-22T11:08:34.313Z,9.20
2023-02-22T11:11:29.383Z,9.10
2023-02-22T11:14:32.173Z,9.40
2023-02-22T11:17:35.299Z,9.70
2023-02-22T11:20:34.570Z,8.80
2023-02-22T11:23:30.172Z,8.90
2023-02-22T11:26:24.174Z,8.40
2023-02-22T11:29:27.178Z,8.90
2023-02-22T11:32:24.603Z,8.70
2023-02-22T11:35:39.487Z,8.40
2023-02-22T11:38:36.838Z,8.00
2023-02-22T11:41:34.966Z,8.20
2023-02-22T11:44:31.985Z,8.00
2023-02-22T11:47:27.255Z,7.60
2023-02-22T11:50:31.942Z,8.10
2023-02-22T11:53:36.769Z,7.90
2023-02-22T11:56:40.998Z,8.40
2023-02-22T11:59:44.351Z,7.80
2023-02-22T12:03:07.708Z,8.00
2023-02-22T12:06:24.346Z,7.70
2023-02-22T12:12:29.145Z,8.30
2023-02-22T12:15:33.171Z,8.20
2023-02-22T12:18:37.404Z,7.40
2023-02-22T12:21:21.544Z,7.70
2023-02-22T12:24:03.359Z,8.30
2023-02-22T12:27:09.879Z,7.40
2023-02-22T12:30:13.171Z,7.00
2023-02-22T12:33:18.412Z,7.40
2023-02-22T12:36:20.817Z,6.60
2023-02-22T12:39:52.319Z,7.20
2023-02-22T12:42:57.711Z,6.90
2023-02-22T12:46:01.548Z,7.00
2023-02-22T12:49:03.154Z,7.50
2023-02-22T12:52:19.388Z,7.10
2023-02-22T12:55:21.502Z,6.90
2023-02-22T12:58:27.286Z,6.90
2023-02-22T13:01:26.903Z,6.80
2023-02-22T13:04:22.370Z,6.90
2023-02-22T13:07:33.966Z,6.60
2023-02-22T13:10:55.359Z,6.50
2023-02-22T13:14:17.653Z,7.20
2023-02-22T13:17:24.036Z,7.10
2023-02-22T13:20:24.273Z,6.30
2023-02-22T13:23:32.975Z,6.80
2023-02-22T13:26:34.859Z,6.30
2023-02-22T13:29:32.777Z,6.10
2023-02-22T13:32:45.369Z,6.70
2023-02-22T13:35:56.548Z,6.10
2023-02-22T13:39:18.660Z,6.30
2023-02-22T13:42:47.282Z,6.90
2023-02-22T13:46:28.666Z,6.40
2023-02-22T13:49:53.598Z,6.20
2023-02-22T13:52:49.804Z,6.10
2023-02-22T13:56:05.991Z,6.80
2023-02-22T13:59:04.547Z,5.80
2023-02-22T14:01:59.383Z,6.10
2023-02-22T14:04:54.328Z,6.10
2023-02-22T14:07:52.581Z,6.30
2023-02-22T14:10:55.308Z,5.60
2023-02-22T14:14:18.392Z,6.00
2023-02-22T14:17:37.111Z,5.90
2023-02-22T14:20:37.224Z,5.90
2023-02-22T14:23:38.049Z,6.20
2023-02-22T14:26:34.630Z,5.80
2023-02-22T14:29:29.108Z,6.00
2023-02-22T14:32:31.307Z,6.10
2023-02-22T14:35:38.478Z,6.30
2023-02-22T14:38:39.500Z,5.90
2023-02-22T14:41:38.425Z,6.20
2023-02-22T14:44:40.452Z,6.00
2023-02-22T14:48:01.153Z,5.90
2023-02-22T14:51:01.962Z,5.40
2023-02-22T14:54:07.529Z,5.60
2023-02-22T14:57:15.794Z,5.70
2023-02-22T15:00:30.562Z,5.50
2023-02-22T15:03:45.556Z,5.70
2023-02-22T15:06:39.553Z,5.70
2023-02-22T15:09:37.454Z,5.20
2023-02-22T15:12:32.580Z,5.40
2023-02-22T15:15:27.732Z,5.10
2023-02-22T15:18:30.179Z,4.90
2023-02-22T15:21:28.582Z,6.30
2023-02-22T15:24:28.867Z,5.40
2023-02-22T15:27:23.075Z,5.40
2023-02-22T15:30:26.602Z,5.00
2023-02-22T15:33:24.563Z,5.60
2023-02-22T15:36:20.197Z,5.10
2023-02-22T15:39:27.092Z,5.20
2023-02-22T15:42:23.417Z,5.50
2023-02-22T15:45:26.277Z,4.80
2023-02-22T15:48:20.545Z,5.20
2023-02-22T15:51:18.616Z,5.20
2023-02-22T15:54:26.429Z,5.10
2023-02-22T15:57:25.428Z,4.80
2023-02-22T16:00:36.358Z,4.90
2023-02-22T16:03:47.071Z,4.50
2023-02-22T16:06:43.096Z,5.00
2023-02-22T16:09:37.473Z,5.10
2023-02-22T16:12:32.677Z,4.80
2023-02-22T16:15:32.707Z,4.90
2023-02-22T16:18:34.457Z,5.40
2023-02-22T16:21:31.588Z,4.90
2023-02-22T16:24:33.898Z,5.00
2023-02-22T16:27:28.770Z,5.30
2023-02-22T16:30:33.872Z,5.40
2023-02-22T16:33:29.970Z,4.90
2023-02-22T16:36:38.694Z,4.90
2023-02-22T16:39:36.107Z,4.80
2023-02-22T16:42:29.908Z,4.90
2023-02-22T16:45:25.821Z,4.80
2023-02-22T16:48:23.026Z,4.90
2023-02-22T16:51:25.667Z,4.80
2023-02-22T16:54:36.523Z,4.70
2023-02-22T16:57:34.363Z,4.80
2023-02-22T17:00:32.229Z,4.90
2023-02-22T17:06:19.869Z,4.90
2023-02-22T17:09:15.317Z,5.00
2023-02-22T17:12:11.031Z,4.40
2023-02-22T17:15:05.091Z,5.10
2023-02-22T17:18:00.064Z,5.00
2023-02-22T17:20:56.208Z,5.40
2023-02-22T17:23:50.191Z,4.80
2023-02-22T17:26:44.137Z,5.10
2023-02-22T17:29:38.191Z,4.70
2023-02-22T17:32:32.874Z,5.10
2023-02-22T17:35:27.185Z,5.20
2023-02-22T17:38:22.902Z,4.80
2023-02-22T17:41:16.925Z,5.10
2023-02-22T17:44:11.194Z,5.60
2023-02-22T17:47:05.082Z,5.00
2023-02-22T17:49:58.968Z,5.00
2023-02-22T17:52:53.575Z,4.90
2023-02-22T17:55:48.011Z,5.40
2023-02-22T17:58:42.374Z,5.70
2023-02-22T18:01:36.403Z,5.20
2023-02-22T18:04:30.140Z,5.50
2023-02-22T18:07:24.118Z,5.10
2023-02-22T18:10:20.800Z,5.00
2023-02-22T18:13:17.873Z,5.80
2023-02-22T18:16:12.397Z,5.40
2023-02-22T18:19:06.475Z,5.70
2023-02-22T18:22:03.073Z,5.10
2023-02-22T18:25:00.898Z,5.50
2023-02-22T18:27:56.365Z,5.20
2023-02-22T18:30:52.886Z,5.30
2023-02-22T18:33:50.292Z,6.20
2023-02-22T18:36:44.557Z,5.50
2023-02-22T18:39:42.780Z,5.80
2023-02-22T18:42:39.780Z,5.90
2023-02-22T18:45:33.523Z,6.50
2023-02-22T18:48:27.352Z,6.90
2023-02-22T18:51:21.611Z,7.30
2023-02-22T18:54:16.653Z,6.40
2023-02-22T18:57:12.725Z,7.70
2023-02-22T19:00:08.978Z,6.40
2023-02-22T19:03:05.082Z,6.20
2023-02-22T19:06:03.852Z,6.40
2023-02-22T19:09:01.345Z,6.50
2023-02-22T19:14:48.629Z,7.60
2023-02-22T19:17:42.932Z,7.70
2023-02-22T19:20:36.722Z,7.10
2023-02-22T19:23:34.378Z,7.60
2023-02-22T19:26:32.181Z,8.40
2023-02-22T19:29:26.501Z,8.90
2023-02-22T19:32:20.279Z,9.20
2023-02-22T19:35:26.061Z,11.70
2023-02-22T19:38:20.631Z,8.90
2023-02-22T19:41:18.158Z,11.00
2023-02-22T19:44:13.310Z,9.80
2023-02-22T19:47:10.152Z,11.00
2023-02-22T19:50:05.161Z,10.30
2023-02-22T19:52:59.535Z,10.80
2023-02-22T19:55:53.491Z,11.20
2023-02-22T19:58:50.391Z,11.80
2023-02-22T20:01:45.272Z,13.00
2023-02-22T20:05:00.599Z,13.30
2023-02-22T20:07:55.373Z,13.00
2023-02-22T20:10:49.366Z,13.50
2023-02-22T20:13:43.809Z,14.00
2023-02-22T20:16:38.573Z,13.80
2023-02-22T20:19:32.583Z,14.50
2023-02-22T20:22:29.633Z,14.90
2023-02-22T20:25:23.623Z,14.80
2023-02-22T20:28:18.088Z,15.30
2023-02-22T20:31:14.933Z,16.60
2023-02-22T20:34:10.678Z,16.60
2023-02-22T20:37:05.324Z,16.60
2023-02-22T20:39:59.989Z,17.70
2023-02-22T20:42:56.517Z,17.50
2023-02-22T20:45:50.662Z,17.40
2023-02-22T20:48:44.508Z,17.80
2023-02-22T20:51:40.409Z,17.60
2023-02-22T20:54:35.207Z,19.60
2023-02-22T20:57:30.512Z,18.00
2023-02-22T21:00:24.465Z,19.00
2023-02-22T21:03:18.247Z,20.00
2023-02-22T21:06:15.419Z,18.70
2023-02-22T21:08:54.236Z,19.70
2023-02-22T21:11:49.053Z,18.40
2023-02-22T21:14:44.237Z,19.50
2023-02-22T21:17:37.950Z,20.50
2023-02-22T21:20:31.963Z,19.80
2023-02-22T21:23:25.931Z,21.30
2023-02-22T21:26:02.457Z,21.90
2023-02-22T21:28:58.944Z,20.80
2023-02-22T21:31:53.105Z,21.10
2023-02-22T21:34:47.220Z,22.00
2023-02-22T21:37:41.209Z,19.60
2023-02-22T21:40:36.485Z,21.60
2023-02-22T21:43:13.090Z,21.40
2023-02-22T21:45:52.143Z,21.60
2023-02-22T21:48:49.209Z,22.50
2023-02-22T21:51:45.068Z,22.60
2023-02-22T21:54:39.437Z,22.50
2023-02-22T21:57:36.197Z,21.80
2023-02-22T22:00:31.486Z,24.10
2023-02-22T22:03:25.155Z,22.70
2023-02-22T22:06:20.908Z,22.80
2023-02-22T22:09:19.179Z,22.90
2023-02-22T22:12:14.201Z,26.30
2023-02-22T22:15:09.803Z,23.60
2023-02-22T22:18:06.755Z,24.20
2023-02-22T22:21:01.037Z,23.80
2023-02-22T22:23:57.328Z,24.00
2023-02-22T22:26:54.556Z,22.90
2023-02-22T22:29:49.581Z,24.30
2023-02-22T22:32:45.650Z,24.70
2023-02-22T22:35:41.895Z,25.60
2023-02-22T22:38:38.658Z,23.30
2023-02-22T22:41:33.862Z,25.50
2023-02-22T22:44:32.784Z,24.20
2023-02-22T22:47:26.958Z,25.10
2023-02-22T22:50:26.462Z,25.70
2023-02-22T22:53:20.496Z,24.10
2023-02-22T22:56:19.240Z,24.90
2023-02-22T22:59:15.287Z,25.80
2023-02-22T23:01:52.337Z,23.70
2023-02-22T23:04:46.147Z,26.10
2023-02-22T23:07:40.105Z,24.20
2023-02-22T23:10:39.310Z,23.30
2023-02-22T23:13:21.580Z,24.20
2023-02-22T23:16:15.356Z,24.00
2023-02-22T23:19:09.478Z,23.80
2023-02-22T23:22:05.495Z,23.00
2023-02-22T23:25:00.975Z,23.20
2023-02-22T23:27:56.186Z,22.60
2023-02-22T23:30:49.937Z,23.50
2023-02-22T23:33:45.217Z,22.60
2023-02-22T23:36:39.870Z,21.00
2023-02-22T23:39:33.769Z,20.70
2023-02-22T23:42:28.141Z,21.30
2023-02-22T23:45:23.890Z,20.40
2023-02-22T23:48:20.660Z,20.30
2023-02-22T23:51:18.704Z,20.70
2023-02-22T23:54:15.850Z,21.10
2023-02-22T23:57:09.976Z,20.10
